Time;durP1;ratioP1;P1;durP2;ratioP2;P2;SDS_P1;SDS_P2;PMS_P1;PMS_P2;Temp;Humidity;BMP_temperature;BMP_pressure;BME280_temperature;BME280_humidity;BME280_pressure;Samples;Min_cycle;Max_cycle;Signal;HPM_P1;HPM_P2
2021/04/28 00:00:59;;;;;;;7.82;4.00;;;11.90;48.90;;;;;;5030653;28;20470;-60
2021/04/28 00:03:26;;;;;;;6.95;4.22;;;11.90;49.10;;;;;;5030612;28;20097;-60
2021/04/28 00:05:51;;;;;;;7.05;4.15;;;11.90;49.00;;;;;;5030621;28;20041;-60
2021/04/28 00:08:17;;;;;;;9.15;4.53;;;11.90;48.90;;;;;;5029526;28;20037;-61
2021/04/28 00:10:43;;;;;;;9.77;4.22;;;12.00;48.50;;;;;;5031400;28;20073;-60
2021/04/28 00:13:11;;;;;;;6.78;3.97;;;11.90;48.40;;;;;;5030677;28;20028;-61
2021/04/28 00:15:40;;;;;;;5.95;3.83;;;11.90;48.60;;;;;;5030576;28;20025;-61
2021/04/28 00:18:05;;;;;;;5.63;4.20;;;11.90;48.40;;;;;;5029867;28;20501;-60
2021/04/28 00:20:38;;;;;;;5.57;3.45;;;11.90;48.70;;;;;;5032478;28;20084;-60
2021/04/28 00:23:04;;;;;;;7.20;4.38;;;11.80;48.60;;;;;;5034501;28;20498;-60
2021/04/28 00:25:29;;;;;;;9.00;4.68;;;11.80;48.30;;;;;;5035892;28;20060;-60
2021/04/28 00:27:55;;;;;;;6.25;3.95;;;12.00;47.90;;;;;;5035808;28;20550;-60
2021/04/28 00:30:21;;;;;;;6.00;4.22;;;12.00;47.70;;;;;;5035506;28;20026;-60
2021/04/28 00:32:49;;;;;;;8.27;4.13;;;12.00;47.70;;;;;;5035659;28;20441;-60
2021/04/28 00:35:15;;;;;;;7.95;4.20;;;11.90;48.00;;;;;;5035445;28;20079;-60
2021/04/28 00:37:41;;;;;;;6.75;3.80;;;11.70;49.00;;;;;;5035963;28;20466;-61
2021/04/28 00:40:09;;;;;;;10.35;4.28;;;11.60;48.60;;;;;;5035496;28;20029;-61
2021/04/28 00:42:35;;;;;;;8.55;3.92;;;11.80;48.20;;;;;;5035518;28;20486;-61
2021/04/28 00:45:03;;;;;;;8.63;4.25;;;11.90;48.30;;;;;;5035651;28;20025;-61
2021/04/28 00:47:29;;;;;;;6.18;3.80;;;11.70;48.80;;;;;;5034496;28;20044;-61
2021/04/28 00:49:54;;;;;;;5.75;4.00;;;11.70;49.20;;;;;;5034019;28;20018;-61
2021/04/28 00:52:21;;;;;;;6.28;4.00;;;11.50;49.70;;;;;;5034705;28;20129;-61
2021/04/28 00:54:47;;;;;;;6.65;4.35;;;11.50;49.70;;;;;;5032554;28;20065;-61
2021/04/28 00:57:12;;;;;;;7.45;4.25;;;11.50;49.50;;;;;;5034145;28;20431;-61
2021/04/28 00:59:38;;;;;;;9.90;4.53;;;11.50;49.30;;;;;;5033132;28;20389;-61
2021/04/28 01:02:04;;;;;;;6.35;4.15;;;11.80;48.40;;;;;;5033816;28;20041;-60
2021/04/28 01:04:29;;;;;;;7.07;4.05;;;11.80;48.30;;;;;;5034711;28;20025;-61
2021/04/28 01:06:55;;;;;;;6.00;4.18;;;11.70;48.60;;;;;;5035042;28;20112;-60
2021/04/28 01:09:22;;;;;;;7.22;4.22;;;11.60;48.40;;;;;;5035157;28;20518;-60
2021/04/28 01:11:48;;;;;;;5.90;3.78;;;11.50;49.40;;;;;;5034208;28;20049;-60
2021/04/28 01:14:14;;;;;;;11.10;4.03;;;11.40;49.20;;;;;;5034462;28;20485;-61
2021/04/28 01:16:39;;;;;;;5.35;4.28;;;11.30;49.50;;;;;;5034518;28;20037;-60
2021/04/28 01:19:06;;;;;;;8.48;4.18;;;11.30;49.70;;;;;;5034036;28;20041;-61
2021/04/28 01:21:32;;;;;;;10.50;3.90;;;11.20;50.00;;;;;;5033935;28;20061;-61
2021/04/28 01:23:58;;;;;;;12.40;4.57;;;11.20;49.80;;;;;;5034064;28;20037;-61
2021/04/28 01:26:27;;;;;;;6.43;4.72;;;11.30;49.80;;;;;;5034890;28;20075;-61
2021/04/28 01:28:54;;;;;;;4.43;3.63;;;11.20;50.20;;;;;;5033177;28;20508;-61
2021/04/28 01:31:23;;;;;;;6.80;4.30;;;11.10;50.80;;;;;;5033633;28;20382;-61
2021/04/28 01:33:54;;;;;;;6.50;4.43;;;11.10;50.80;;;;;;5033463;28;20026;-61
2021/04/28 01:36:24;;;;;;;7.55;4.20;;;11.10;50.90;;;;;;5032245;28;20080;-61
2021/04/28 01:38:53;;;;;;;8.27;4.63;;;11.10;50.50;;;;;;5034287;28;20627;-61
2021/04/28 01:41:19;;;;;;;10.18;4.55;;;11.10;50.50;;;;;;5033699;28;20482;-61
2021/04/28 01:43:45;;;;;;;8.45;4.10;;;11.10;50.40;;;;;;5020158;28;20068;-61
2021/04/28 01:46:11;;;;;;;6.53;4.20;;;11.20;50.10;;;;;;5012972;28;20049;-60
2021/04/28 01:48:42;;;;;;;7.72;4.68;;;11.30;49.60;;;;;;5013712;28;20022;-60
2021/04/28 01:51:09;;;;;;;9.05;4.57;;;11.30;49.60;;;;;;5013032;28;20061;-60
2021/04/28 01:53:36;;;;;;;6.60;4.50;;;11.40;49.70;;;;;;5013771;28;20029;-60
2021/04/28 01:56:03;;;;;;;7.75;4.47;;;11.30;49.90;;;;;;5012101;28;20045;-60
2021/04/28 01:58:30;;;;;;;6.78;4.60;;;11.20;50.30;;;;;;5014375;28;20399;-60
2021/04/28 02:00:56;;;;;;;9.85;4.40;;;11.00;50.80;;;;;;5010909;28;20022;-60
2021/04/28 02:03:26;;;;;;;6.72;4.40;;;10.90;51.00;;;;;;5013449;28;20037;-60
2021/04/28 02:05:53;;;;;;;6.07;4.43;;;10.90;51.20;;;;;;5010927;28;20503;-60
2021/04/28 02:08:19;;;;;;;9.32;4.85;;;10.90;51.30;;;;;;5012915;28;20364;-60
2021/04/28 02:10:46;;;;;;;8.07;4.32;;;10.80;51.30;;;;;;5011118;28;20088;-60
2021/04/28 02:13:15;;;;;;;7.03;3.97;;;10.90;51.30;;;;;;5013402;28;20541;-61
2021/04/28 02:15:43;;;;;;;5.07;4.22;;;10.90;51.40;;;;;;5013789;28;20100;-61
2021/04/28 02:18:09;;;;;;;7.32;4.47;;;10.80;51.40;;;;;;5013542;28;20022;-60
2021/04/28 02:20:37;;;;;;;7.90;4.50;;;10.80;51.70;;;;;;5012377;28;20018;-60
2021/04/28 02:23:05;;;;;;;5.90;4.55;;;10.70;51.80;;;;;;5012645;28;20046;-60
2021/04/28 02:25:31;;;;;;;13.20;4.90;;;10.70;51.90;;;;;;5013500;28;20080;-60
2021/04/28 02:27:57;;;;;;;11.88;4.97;;;10.60;52.10;;;;;;5014292;28;20386;-60
2021/04/28 02:30:26;;;;;;;8.60;4.60;;;10.50;52.40;;;;;;5012758;28;20022;-60
2021/04/28 02:32:52;;;;;;;7.22;4.95;;;10.40;52.60;;;;;;5014050;28;20022;-60
2021/04/28 02:35:20;;;;;;;8.32;4.75;;;10.30;52.60;;;;;;5013919;28;20537;-60
2021/04/28 02:37:50;;;;;;;6.57;4.55;;;10.30;52.70;;;;;;5012916;28;20114;-60
2021/04/28 02:40:16;;;;;;;6.20;4.32;;;10.20;52.60;;;;;;5013626;28;20033;-60
2021/04/28 02:42:44;;;;;;;6.60;4.40;;;10.20;52.70;;;;;;5013499;28;20026;-60
2021/04/28 02:45:15;;;;;;;7.03;4.80;;;10.20;52.80;;;;;;5013688;28;20029;-60
2021/04/28 02:47:41;;;;;;;13.77;4.97;;;10.10;52.90;;;;;;5013856;28;20479;-60
2021/04/28 02:50:15;;;;;;;9.07;5.05;;;10.10;53.20;;;;;;5028477;28;20026;-60
2021/04/28 02:52:43;;;;;;;9.85;5.15;;;10.00;53.00;;;;;;5012846;28;20041;-60
2021/04/28 02:55:10;;;;;;;6.40;5.13;;;9.90;53.30;;;;;;5012937;28;20630;-60
2021/04/28 02:57:35;;;;;;;8.45;5.20;;;9.90;53.50;;;;;;5013091;28;20485;-60
2021/04/28 03:00:05;;;;;;;7.90;4.70;;;9.90;53.60;;;;;;5013128;28;20026;-60
2021/04/28 03:02:32;;;;;;;13.90;4.90;;;9.80;53.80;;;;;;5012745;28;20022;-60
2021/04/28 03:04:58;;;;;;;6.47;4.72;;;9.80;53.90;;;;;;5012459;28;20038;-60
2021/04/28 03:07:24;;;;;;;8.43;4.72;;;9.70;54.20;;;;;;5011570;28;20026;-60
2021/04/28 03:09:49;;;;;;;13.32;5.25;;;9.70;54.30;;;;;;5013000;28;20227;-60
2021/04/28 03:12:16;;;;;;;7.22;4.75;;;9.70;54.20;;;;;;5012349;28;20018;-60
2021/04/28 03:14:42;;;;;;;8.93;5.20;;;9.70;54.20;;;;;;5011440;28;20112;-61
2021/04/28 03:17:07;;;;;;;9.60;5.13;;;9.50;54.50;;;;;;5012927;28;20050;-60
2021/04/28 03:19:34;;;;;;;7.45;4.93;;;9.50;54.80;;;;;;5011205;28;20057;-60
2021/04/28 03:22:00;;;;;;;8.73;5.35;;;9.40;54.60;;;;;;5012358;28;20025;-60
2021/04/28 03:24:26;;;;;;;10.57;4.68;;;9.40;54.50;;;;;;5011288;28;20032;-60
2021/04/28 03:26:56;;;;;;;11.57;5.60;;;9.40;54.60;;;;;;5012553;28;20018;-60
2021/04/28 03:29:22;;;;;;;11.57;5.00;;;9.40;54.80;;;;;;5012177;28;20030;-60
2021/04/28 03:31:47;;;;;;;13.35;5.38;;;9.40;54.70;;;;;;5012425;28;20390;-61
2021/04/28 03:34:13;;;;;;;9.13;5.20;;;9.40;54.30;;;;;;5012646;28;20479;-60
2021/04/28 03:36:39;;;;;;;17.58;5.43;;;9.40;54.90;;;;;;5012929;28;20425;-60
2021/04/28 03:39:05;;;;;;;8.38;4.60;;;9.40;54.80;;;;;;5012347;28;20018;-60
2021/04/28 03:41:31;;;;;;;7.93;5.15;;;9.50;54.60;;;;;;5012388;28;20033;-60
2021/04/28 03:43:56;;;;;;;7.07;5.35;;;9.40;54.50;;;;;;5012684;28;20022;-60
2021/04/28 03:46:22;;;;;;;7.28;5.38;;;9.40;54.70;;;;;;5011532;28;20114;-60
2021/04/28 03:48:49;;;;;;;9.32;5.28;;;9.40;55.10;;;;;;5012190;28;20053;-60
2021/04/28 03:51:15;;;;;;;7.85;5.28;;;9.50;55.10;;;;;;5012103;28;20513;-61
2021/04/28 03:53:41;;;;;;;10.27;5.13;;;9.40;54.80;;;;;;5011872;28;20022;-61
2021/04/28 03:56:06;;;;;;;6.55;5.07;;;9.40;55.20;;;;;;5015502;28;20033;-60
2021/04/28 03:58:32;;;;;;;11.82;5.47;;;9.30;55.20;;;;;;5016380;28;20107;-60
2021/04/28 04:00:58;;;;;;;10.40;5.45;;;9.30;54.90;;;;;;5016188;28;20034;-60
2021/04/28 04:03:26;;;;;;;6.63;5.25;;;9.40;55.00;;;;;;5016364;28;20116;-60
2021/04/28 04:05:51;;;;;;;15.25;5.82;;;9.40;54.90;;;;;;5016425;28;20065;-60
2021/04/28 04:08:17;;;;;;;10.60;5.57;;;9.30;54.90;;;;;;5016825;28;20026;-60
2021/04/28 04:10:43;;;;;;;6.28;5.20;;;9.30;55.40;;;;;;5016262;28;20029;-60
2021/04/28 04:13:08;;;;;;;10.57;5.57;;;9.30;55.50;;;;;;5016076;28;20030;-60
2021/04/28 04:15:34;;;;;;;8.15;5.35;;;9.30;55.70;;;;;;5016238;28;20072;-60
2021/04/28 04:18:00;;;;;;;7.53;5.63;;;9.40;55.20;;;;;;5016049;28;20029;-60
2021/04/28 04:20:25;;;;;;;12.65;5.45;;;9.50;54.80;;;;;;5016048;28;20025;-60
2021/04/28 04:22:51;;;;;;;12.98;5.53;;;9.60;55.00;;;;;;5015965;28;20065;-60
2021/04/28 04:25:16;;;;;;;8.02;5.00;;;9.70;54.90;;;;;;5015998;28;20021;-60
2021/04/28 04:27:42;;;;;;;8.02;5.38;;;9.80;53.90;;;;;;5015958;28;20029;-60
2021/04/28 04:30:09;;;;;;;6.97;5.57;;;9.70;54.20;;;;;;5015431;28;20089;-60
2021/04/28 04:32:36;;;;;;;6.65;5.47;;;9.70;54.60;;;;;;5015664;28;20073;-60
2021/04/28 04:35:03;;;;;;;8.80;5.88;;;9.40;55.70;;;;;;5015857;28;20518;-60
2021/04/28 04:37:29;;;;;;;15.57;6.15;;;9.30;56.10;;;;;;5015472;28;20033;-60
2021/04/28 04:39:54;;;;;;;13.10;5.88;;;9.20;56.00;;;;;;5013831;28;20022;-60
2021/04/28 04:42:20;;;;;;;11.30;5.75;;;9.10;55.80;;;;;;5015435;28;20122;-60
2021/04/28 04:44:46;;;;;;;9.52;5.78;;;9.00;56.10;;;;;;5015260;28;20109;-60
2021/04/28 04:47:11;;;;;;;12.93;5.47;;;9.00;56.40;;;;;;5015318;28;20465;-60
2021/04/28 04:49:38;;;;;;;8.63;5.53;;;9.00;56.70;;;;;;5015119;28;20026;-62
2021/04/28 04:52:05;;;;;;;10.55;5.80;;;9.00;56.90;;;;;;5015011;28;20061;-60
2021/04/28 04:54:31;;;;;;;13.95;5.32;;;9.00;56.80;;;;;;5013626;28;20546;-60
2021/04/28 04:56:57;;;;;;;10.18;5.20;;;9.00;57.00;;;;;;5014690;28;20061;-60
2021/04/28 04:59:23;;;;;;;6.90;5.00;;;8.90;57.00;;;;;;5014699;28;20070;-60
2021/04/28 05:01:49;;;;;;;9.40;5.80;;;8.90;56.80;;;;;;5014960;28;20061;-60
2021/04/28 05:04:14;;;;;;;12.90;6.22;;;9.00;56.50;;;;;;5015058;28;20084;-60
2021/04/28 05:06:40;;;;;;;9.77;6.03;;;9.10;56.40;;;;;;5013350;28;20033;-60
2021/04/28 05:09:05;;;;;;;10.38;6.20;;;9.10;56.20;;;;;;5014964;28;20033;-60
2021/04/28 05:11:31;;;;;;;12.88;6.07;;;9.20;55.80;;;;;;5013450;28;20516;-60
2021/04/28 05:13:57;;;;;;;17.55;6.13;;;9.20;55.90;;;;;;5013338;28;20355;-60
2021/04/28 05:16:22;;;;;;;12.98;6.25;;;9.20;56.00;;;;;;5013914;28;20026;-60
2021/04/28 05:18:48;;;;;;;13.80;6.30;;;9.20;56.40;;;;;;5013449;28;20101;-60
2021/04/28 05:21:13;;;;;;;15.57;6.20;;;9.20;56.70;;;;;;5014522;28;20033;-60
2021/04/28 05:23:39;;;;;;;20.55;7.50;;;9.30;56.50;;;;;;5014396;28;20418;-60
2021/04/28 05:26:05;;;;;;;11.90;6.28;;;9.30;56.20;;;;;;5014786;28;20109;-60
2021/04/28 05:28:30;;;;;;;13.88;6.53;;;9.40;56.60;;;;;;5014379;28;20061;-60
2021/04/28 05:30:56;;;;;;;8.82;6.43;;;9.20;56.30;;;;;;5012739;28;20041;-60
2021/04/28 05:33:21;;;;;;;11.30;6.38;;;9.30;56.50;;;;;;5015448;28;20018;-60
2021/04/28 05:35:47;;;;;;;17.38;6.40;;;9.30;56.30;;;;;;5012764;28;20097;-61
2021/04/28 05:38:13;;;;;;;11.93;6.03;;;9.30;55.80;;;;;;5015943;28;20033;-60
2021/04/28 05:40:38;;;;;;;14.10;6.50;;;9.30;55.70;;;;;;5012791;28;20503;-60
2021/04/28 05:43:04;;;;;;;15.70;6.60;;;9.40;55.70;;;;;;5015544;28;20077;-60
2021/04/28 05:45:29;;;;;;;15.95;6.82;;;9.40;55.60;;;;;;5028222;28;20063;-60
2021/04/28 05:47:55;;;;;;;14.85;6.35;;;9.50;55.60;;;;;;5033419;28;20030;-60
2021/04/28 05:50:21;;;;;;;20.25;6.70;;;9.50;55.80;;;;;;5029199;28;20014;-60
2021/04/28 05:52:47;;;;;;;9.65;7.13;;;9.70;55.70;;;;;;5033509;28;20472;-59
2021/04/28 05:55:13;;;;;;;19.20;7.13;;;9.80;55.20;;;;;;5034032;28;20093;-60
2021/04/28 05:57:39;;;;;;;10.63;6.65;;;9.90;55.40;;;;;;5032468;28;20049;-60
2021/04/28 06:00:12;;;;;;;23.23;7.25;;;9.90;55.30;;;;;;5017555;28;20048;-60
2021/04/28 06:02:37;;;;;;;10.73;7.10;;;10.00;55.20;;;;;;5022414;28;20428;-60
2021/04/28 06:05:04;;;;;;;19.90;7.13;;;10.00;54.80;;;;;;5016834;28;20034;-59
2021/04/28 06:07:30;;;;;;;14.35;6.93;;;10.00;54.90;;;;;;5018153;28;20060;-59
2021/04/28 06:09:55;;;;;;;22.17;7.55;;;10.00;55.00;;;;;;5016883;28;20104;-59
2021/04/28 06:12:21;;;;;;;23.15;7.53;;;10.00;55.10;;;;;;5020564;28;20040;-59
2021/04/28 06:14:47;;;;;;;12.63;6.30;;;10.00;55.20;;;;;;5019714;28;20037;-59
2021/04/28 06:17:12;;;;;;;15.80;7.50;;;10.10;55.00;;;;;;5019831;28;20032;-59
2021/04/28 06:19:38;;;;;;;13.30;6.97;;;10.30;55.00;;;;;;5016567;28;20498;-59
2021/04/28 06:22:04;;;;;;;17.73;7.53;;;10.50;54.80;;;;;;5010883;28;20033;-59
2021/04/28 06:24:29;;;;;;;15.85;7.35;;;10.60;54.60;;;;;;5020348;28;20041;-59
2021/04/28 06:26:56;;;;;;;17.90;7.55;;;10.70;54.30;;;;;;5018062;28;20064;-60
2021/04/28 06:29:21;;;;;;;22.55;7.63;;;10.80;54.60;;;;;;5018718;28;20550;-58
2021/04/28 06:31:47;;;;;;;11.93;7.72;;;10.80;54.10;;;;;;5019316;28;20049;-60
2021/04/28 06:34:12;;;;;;;22.17;7.97;;;10.60;54.20;;;;;;5013064;28;20136;-60
2021/04/28 06:36:38;;;;;;;15.18;8.00;;;10.70;54.40;;;;;;5014392;28;20367;-59
2021/04/28 06:39:04;;;;;;;14.68;7.75;;;10.90;54.40;;;;;;5006708;28;20034;-59
2021/04/28 06:41:31;;;;;;;10.45;7.43;;;10.90;54.30;;;;;;5005656;28;20108;-60
2021/04/28 06:43:56;;;;;;;11.73;7.60;;;10.80;54.40;;;;;;4999383;28;20045;-59
2021/04/28 06:46:22;;;;;;;23.25;7.55;;;10.70;54.60;;;;;;5004565;28;20057;-59
2021/04/28 06:48:48;;;;;;;10.73;7.57;;;10.90;54.70;;;;;;5007568;28;20033;-59
2021/04/28 06:51:13;;;;;;;20.48;7.80;;;10.90;54.90;;;;;;5006815;28;20111;-60
2021/04/28 06:53:39;;;;;;;11.10;8.00;;;10.90;54.60;;;;;;5011649;28;20030;-60
2021/04/28 06:56:05;;;;;;;14.70;7.82;;;10.80;55.10;;;;;;5011966;28;20489;-60
2021/04/28 06:58:32;;;;;;;13.32;7.82;;;11.00;55.10;;;;;;5013104;28;20465;-60
2021/04/28 07:00:58;;;;;;;21.02;8.52;;;11.10;54.30;;;;;;5012980;28;20044;-60
2021/04/28 07:03:25;;;;;;;13.68;7.70;;;11.30;54.80;;;;;;5019626;28;20036;-59
2021/04/28 07:05:50;;;;;;;15.82;8.27;;;11.60;54.20;;;;;;5011116;28;20509;-59
2021/04/28 07:08:16;;;;;;;14.27;8.18;;;11.80;54.20;;;;;;5012137;28;20041;-59
2021/04/28 07:10:42;;;;;;;12.95;8.10;;;12.80;52.20;;;;;;5012943;28;20039;-60
2021/04/28 07:13:08;;;;;;;16.10;8.13;;;14.20;48.50;;;;;;5016030;28;20113;-62
2021/04/28 07:15:33;;;;;;;11.50;7.47;;;15.30;46.20;;;;;;4999956;28;20435;-60
2021/04/28 07:17:59;;;;;;;14.90;8.48;;;16.10;44.00;;;;;;5010451;28;20088;-60
2021/04/28 07:20:25;;;;;;;17.17;8.15;;;16.30;44.10;;;;;;5015065;28;20454;-61
2021/04/28 07:22:52;;;;;;;12.93;8.63;;;17.60;42.00;;;;;;5015345;28;20378;-61
2021/04/28 07:25:17;;;;;;;13.13;8.13;;;17.90;40.70;;;;;;5016531;28;20026;-61
2021/04/28 07:27:43;;;;;;;14.23;8.25;;;17.60;40.80;;;;;;5019411;28;20144;-61
2021/04/28 07:30:10;;;;;;;16.50;8.02;;;17.70;41.00;;;;;;5013940;28;20026;-61
2021/04/28 07:32:37;;;;;;;13.60;7.97;;;17.60;41.00;;;;;;5020422;28;20026;-61
2021/04/28 07:35:04;;;;;;;11.05;7.82;;;17.60;41.40;;;;;;5006277;28;20029;-61
2021/04/28 07:37:29;;;;;;;14.10;8.02;;;17.60;41.20;;;;;;5007488;28;20117;-61
2021/04/28 07:39:55;;;;;;;12.88;7.60;;;18.20;40.60;;;;;;5013187;28;20120;-61
2021/04/28 07:42:21;;;;;;;14.57;8.30;;;18.50;40.10;;;;;;5009668;28;20061;-61
2021/04/28 07:44:47;;;;;;;17.77;8.40;;;17.70;41.00;;;;;;5011133;28;20051;-61
2021/04/28 07:47:12;;;;;;;16.25;8.15;;;17.70;41.60;;;;;;5012242;28;20036;-61
2021/04/28 07:49:38;;;;;;;15.60;8.75;;;17.80;41.80;;;;;;5014737;28;20026;-62
2021/04/28 07:52:04;;;;;;;14.25;8.60;;;18.20;40.50;;;;;;5020560;28;20516;-61
2021/04/28 07:54:29;;;;;;;14.63;8.95;;;18.60;40.40;;;;;;5015290;28;20053;-61
2021/04/28 07:56:55;;;;;;;14.45;8.60;;;18.50;40.10;;;;;;5017415;28;20112;-60
2021/04/28 07:59:21;;;;;;;12.57;8.73;;;18.00;41.80;;;;;;5017370;28;20050;-61
2021/04/28 08:01:48;;;;;;;11.27;8.77;;;17.90;41.80;;;;;;5015121;28;20033;-61
2021/04/28 08:04:15;;;;;;;13.02;8.82;;;17.70;42.20;;;;;;5031325;28;20030;-62
2021/04/28 08:06:40;;;;;;;12.77;9.27;;;17.20;42.80;;;;;;5009190;28;20034;-61
2021/04/28 08:09:06;;;;;;;15.65;9.60;;;17.50;42.70;;;;;;5012850;28;20037;-60
2021/04/28 08:11:32;;;;;;;22.92;9.52;;;17.70;42.50;;;;;;5010386;28;20041;-60
2021/04/28 08:13:57;;;;;;;17.17;9.55;;;17.80;42.40;;;;;;5007715;28;20034;-61
2021/04/28 08:16:23;;;;;;;12.80;9.57;;;17.80;42.90;;;;;;5007321;28;20037;-61
2021/04/28 08:18:49;;;;;;;19.40;9.48;;;18.20;41.70;;;;;;5012928;28;20096;-61
2021/04/28 08:21:16;;;;;;;17.17;9.95;;;18.20;42.70;;;;;;5014285;28;20040;-61
2021/04/28 08:23:42;;;;;;;17.08;10.20;;;17.60;40.80;;;;;;5018142;28;20465;-61
2021/04/28 08:26:13;;;;;;;37.58;10.88;;;17.30;41.80;;;;;;5016839;28;20037;-61
2021/04/28 08:28:41;;;;;;;21.77;10.20;;;16.80;44.40;;;;;;5013835;28;20033;-61
2021/04/28 08:31:11;;;;;;;17.33;10.07;;;16.30;46.20;;;;;;5013897;28;20748;-61
2021/04/28 08:33:39;;;;;;;13.55;10.57;;;16.20;46.60;;;;;;5016241;28;20487;-61
2021/04/28 08:36:05;;;;;;;17.77;10.00;;;16.00;46.50;;;;;;5017465;28;20029;-61
2021/04/28 08:38:31;;;;;;;19.42;10.73;;;16.10;46.80;;;;;;5012692;28;20029;-60
2021/04/28 08:40:59;;;;;;;21.77;13.80;;;16.10;45.40;;;;;;5012177;28;20034;-62
2021/04/28 08:43:25;;;;;;;27.05;16.23;;;15.90;45.40;;;;;;5020404;28;20030;-62
2021/04/28 08:45:52;;;;;;;23.10;14.93;;;16.20;45.00;;;;;;5013429;28;20025;-61
2021/04/28 08:48:18;;;;;;;38.47;17.02;;;16.20;45.60;;;;;;5012729;28;20029;-61
2021/04/28 08:50:48;;;;;;;16.10;11.30;;;16.50;46.00;;;;;;5016672;28;20534;-61
2021/04/28 08:53:15;;;;;;;29.92;17.08;;;16.30;45.10;;;;;;5010623;28;20458;-61
2021/04/28 08:55:41;;;;;;;24.08;13.27;;;16.10;45.90;;;;;;5016820;28;20057;-61
2021/04/28 08:58:07;;;;;;;21.30;12.15;;;16.10;45.40;;;;;;5013525;28;20073;-61
2021/04/28 09:00:33;;;;;;;16.15;11.55;;;16.30;45.90;;;;;;5015304;28;20510;-61
2021/04/28 09:03:00;;;;;;;18.00;10.70;;;16.50;45.60;;;;;;5013407;28;20036;-61
2021/04/28 09:05:28;;;;;;;20.35;11.45;;;17.10;44.40;;;;;;5026592;28;20377;-61
2021/04/28 09:07:54;;;;;;;20.25;11.38;;;17.60;43.40;;;;;;5016222;28;20022;-61
2021/04/28 09:10:29;;;;;;;14.73;10.90;;;18.10;42.30;;;;;;5014397;28;20029;-61
2021/04/28 09:13:00;;;;;;;17.95;10.60;;;18.50;39.70;;;;;;5012666;28;20103;-65
2021/04/28 09:15:30;;;;;;;18.42;10.95;;;18.70;40.20;;;;;;5016879;28;20021;-61
2021/04/28 09:17:56;;;;;;;19.83;10.98;;;19.20;40.30;;;;;;5017836;28;20075;-61
2021/04/28 09:20:38;;;;;;;19.85;11.15;;;19.70;39.40;;;;;;5015423;28;20422;-61
2021/04/28 09:23:25;;;;;;;19.23;11.77;;;20.30;38.80;;;;;;5010492;28;20029;-61
2021/04/28 09:25:53;;;;;;;17.48;11.55;;;20.60;37.50;;;;;;5016265;28;20030;-61
2021/04/28 09:28:36;;;;;;;31.58;13.10;;;20.80;37.30;;;;;;5011864;28;21406;-61
2021/04/28 09:31:07;;;;;;;18.58;12.40;;;20.60;36.40;;;;;;5014512;28;20116;-61
2021/04/28 09:33:59;;;;;;;17.83;11.65;;;20.50;36.10;;;;;;5015057;28;20021;-61
2021/04/28 09:36:28;;;;;;;17.73;11.30;;;21.00;35.70;;;;;;5013768;28;20043;-62
2021/04/28 09:39:02;;;;;;;14.50;11.52;;;21.70;35.20;;;;;;5014398;28;20025;-62
2021/04/28 09:41:39;;;;;;;16.65;12.35;;;22.40;33.30;;;;;;5019175;28;20116;-62
2021/04/28 09:44:20;;;;;;;16.52;11.63;;;21.90;34.00;;;;;;5014135;28;20347;-62
2021/04/28 09:47:09;;;;;;;19.80;12.05;;;22.20;33.50;;;;;;5002336;28;20060;-62
2021/04/28 09:50:01;;;;;;;14.95;11.73;;;22.80;34.00;;;;;;5018486;28;20522;-62
2021/04/28 09:52:29;;;;;;;21.13;13.00;;;23.00;32.80;;;;;;5017594;28;20462;-62
2021/04/28 09:54:59;;;;;;;36.90;14.18;;;22.80;34.30;;;;;;5028107;28;20478;-64
2021/04/28 09:57:45;;;;;;;17.27;11.50;;;23.40;33.90;;;;;;5017310;28;20128;-63
2021/04/28 10:00:20;;;;;;;23.55;12.10;;;23.20;31.80;;;;;;5015248;28;20102;-61
2021/04/28 10:02:59;;;;;;;14.93;12.00;;;23.30;32.80;;;;;;5015421;28;20487;-62
2021/04/28 10:05:30;;;;;;;14.60;11.82;;;23.10;32.20;;;;;;5015272;28;20030;-62
2021/04/28 10:08:19;;;;;;;20.43;11.97;;;23.30;32.90;;;;;;5015439;28;20029;-63
2021/04/28 10:10:46;;;;;;;20.48;12.05;;;23.60;32.10;;;;;;5018003;28;20052;-63
2021/04/28 10:13:13;;;;;;;24.33;13.73;;;24.40;30.70;;;;;;5019950;28;20037;-62
2021/04/28 10:15:39;;;;;;;20.30;11.45;;;24.70;31.10;;;;;;5014562;28;20021;-62
2021/04/28 10:18:07;;;;;;;17.95;11.18;;;24.60;31.10;;;;;;5012882;28;20367;-62
2021/04/28 10:20:35;;;;;;;15.73;12.27;;;24.70;30.20;;;;;;5013433;28;20072;-62
2021/04/28 10:23:07;;;;;;;16.42;12.95;;;24.20;31.20;;;;;;5014244;28;20038;-62
2021/04/28 10:25:34;;;;;;;18.27;12.70;;;23.70;32.60;;;;;;5019961;28;20037;-62
2021/04/28 10:28:01;;;;;;;21.63;12.65;;;23.50;31.70;;;;;;5008612;28;20034;-62
2021/04/28 10:30:27;;;;;;;15.18;12.70;;;23.30;32.60;;;;;;5007128;28;20084;-63
2021/04/28 10:32:55;;;;;;;17.58;12.88;;;23.90;31.50;;;;;;5024858;28;20024;-62
2021/04/28 10:35:22;;;;;;;17.85;12.45;;;24.50;31.00;;;;;;5019841;28;20029;-62
2021/04/28 10:37:51;;;;;;;14.85;12.55;;;24.20;31.30;;;;;;5014188;28;20025;-62
2021/04/28 10:40:21;;;;;;;17.25;13.23;;;23.90;31.70;;;;;;5008545;28;20026;-62
2021/04/28 10:42:48;;;;;;;18.58;12.43;;;24.00;31.80;;;;;;5008753;28;20022;-62
2021/04/28 10:45:22;;;;;;;14.05;12.63;;;24.50;31.80;;;;;;5021087;28;20037;-62
2021/04/28 10:47:49;;;;;;;15.18;11.70;;;25.20;31.30;;;;;;5021947;28;20037;-62
2021/04/28 10:50:24;;;;;;;21.27;12.63;;;25.70;29.80;;;;;;5030336;28;20033;-62
2021/04/28 10:53:07;;;;;;;23.00;13.20;;;26.00;28.90;;;;;;5026462;28;20156;-62
2021/04/28 10:55:49;;;;;;;14.88;12.27;;;25.70;29.40;;;;;;5013039;28;20394;-63
2021/04/28 10:58:31;;;;;;;16.25;12.50;;;25.20;29.40;;;;;;5009826;28;20046;-63
2021/04/28 11:01:04;;;;;;;20.40;12.80;;;25.70;29.70;;;;;;5026761;28;20029;-61
2021/04/28 11:03:31;;;;;;;13.93;12.45;;;26.10;28.40;;;;;;5030512;28;20021;-63
2021/04/28 11:06:23;;;;;;;15.80;12.38;;;25.60;29.50;;;;;;5031701;28;20463;-62
2021/04/28 11:08:49;;;;;;;16.80;12.38;;;25.10;30.00;;;;;;5027823;28;20038;-61
2021/04/28 11:11:30;;;;;;;19.88;12.68;;;25.10;31.30;;;;;;5018844;28;20029;-62
2021/04/28 11:14:18;;;;;;;15.00;12.43;;;24.90;29.20;;;;;;5013905;28;20033;-62
2021/04/28 11:16:44;;;;;;;17.08;12.07;;;25.50;30.00;;;;;;5020369;28;20026;-62
2021/04/28 11:19:27;;;;;;;19.85;12.82;;;25.40;29.30;;;;;;5031384;28;20028;-62
2021/04/28 11:22:30;;;;;;;16.42;12.80;;;24.80;29.20;;;;;;5027896;28;20560;-62
2021/04/28 11:25:08;;;;;;;14.60;12.40;;;24.20;30.30;;;;;;5023468;28;20111;-63
2021/04/28 11:27:43;;;;;;;15.70;12.02;;;23.60;30.70;;;;;;5020777;28;20021;-61
2021/04/28 11:30:23;;;;;;;17.20;12.77;;;23.00;33.20;;;;;;5013538;28;20033;-62
2021/04/28 11:33:04;;;;;;;15.70;12.70;;;22.70;33.40;;;;;;5017921;28;20033;-62
2021/04/28 11:35:30;;;;;;;18.50;12.75;;;23.80;32.90;;;;;;5011792;28;20033;-63
2021/04/28 11:38:08;;;;;;;16.25;13.38;;;24.40;30.60;;;;;;5031289;28;20025;-63
2021/04/28 11:41:01;;;;;;;26.40;13.65;;;24.10;31.50;;;;;;5026317;28;20052;-62
2021/04/28 11:43:47;;;;;;;18.00;13.25;;;25.10;30.20;;;;;;5014752;28;20498;-63
2021/04/28 11:46:20;;;;;;;19.10;13.48;;;26.10;29.20;;;;;;5027963;28;20056;-63
2021/04/28 11:48:48;;;;;;;14.25;12.73;;;26.70;28.30;;;;;;5027092;28;20026;-62
2021/04/28 11:51:16;;;;;;;16.60;12.70;;;26.70;28.90;;;;;;5009535;28;20454;-63
2021/04/28 11:53:56;;;;;;;23.40;13.02;;;26.50;28.40;;;;;;5022377;28;20039;-62
2021/04/28 11:56:43;;;;;;;22.15;12.65;;;26.00;28.80;;;;;;5029651;28;20052;-63
2021/04/28 11:59:30;;;;;;;16.45;12.80;;;26.50;29.70;;;;;;5030740;28;20056;-63
2021/04/28 12:02:00;;;;;;;16.05;13.15;;;26.00;28.60;;;;;;5029521;28;20112;-63
2021/04/28 12:04:27;;;;;;;17.48;14.07;;;25.30;29.50;;;;;;5031234;28;20064;-63
2021/04/28 12:06:55;;;;;;;20.70;13.55;;;25.20;29.50;;;;;;5030334;28;20045;-62
2021/04/28 12:09:33;;;;;;;22.15;13.50;;;25.60;29.70;;;;;;5021584;28;20457;-62
2021/04/28 12:12:15;;;;;;;17.15;13.13;;;25.30;29.80;;;;;;5010929;28;20026;-63
2021/04/28 12:14:51;;;;;;;;;;;24.80;29.80;;;;;;5009560;28;20026;-63
2021/04/28 12:17:19;;;;;;;16.48;13.43;;;24.80;29.80;;;;;;5014448;28;20355;-63
2021/04/28 12:19:47;;;;;;;16.77;12.93;;;25.80;28.70;;;;;;5014821;28;20105;-63
2021/04/28 12:22:13;;;;;;;18.15;12.60;;;26.70;27.70;;;;;;5015358;28;20109;-63
2021/04/28 12:24:41;;;;;;;17.25;13.05;;;26.90;28.10;;;;;;5014689;28;20506;-63
2021/04/28 12:27:26;;;;;;;16.08;12.90;;;27.30;27.00;;;;;;5014901;28;20026;-63
2021/04/28 12:29:57;;;;;;;19.08;12.55;;;28.00;27.30;;;;;;5014539;28;20036;-62
2021/04/28 12:32:28;;;;;;;18.02;13.63;;;28.10;27.10;;;;;;5014316;28;20026;-62
2021/04/28 12:35:16;;;;;;;23.73;13.47;;;28.40;26.30;;;;;;5013425;28;20239;-63
2021/04/28 12:37:57;;;;;;;14.75;13.20;;;27.70;27.20;;;;;;5014795;28;20026;-63
2021/04/28 12:40:34;;;;;;;17.03;13.50;;;28.30;26.80;;;;;;5014865;28;20088;-63
2021/04/28 12:43:00;;;;;;;14.48;13.02;;;29.00;26.10;;;;;;5014769;28;20033;-63
2021/04/28 12:45:26;;;;;;;20.38;13.60;;;29.50;25.60;;;;;;5016244;28;20029;-63
2021/04/28 12:47:51;;;;;;;18.77;12.38;;;30.30;25.30;;;;;;5034214;28;20032;-63